sensor_id;sensor_type;location;lat;lon;timestamp;temperature;humidity
52203;DHT22;38173;52.850;6.970;2023-04-06T00:00:50;1.60;99.90
52203;DHT22;38173;52.850;6.970;2023-04-06T00:03:16;1.60;99.90
52203;DHT22;38173;52.850;6.970;2023-04-06T00:05:42;1.60;99.90
52203;DHT22;38173;52.850;6.970;2023-04-06T00:08:08;1.50;99.90
52203;DHT22;38173;52.850;6.970;2023-04-06T00:10:33;1.50;99.90
52203;DHT22;38173;52.850;6.970;2023-04-06T00:12:59;1.40;99.90
52203;DHT22;38173;52.850;6.970;2023-04-06T00:15:24;1.40;99.90
52203;DHT22;38173;52.850;6.970;2023-04-06T00:17:50;1.40;99.90
52203;DHT22;38173;52.850;6.970;2023-04-06T00:20:16;1.40;99.90
52203;DHT22;38173;52.850;6.970;2023-04-06T00:22:42;1.40;99.90
52203;DHT22;38173;52.850;6.970;2023-04-06T00:25:08;1.30;99.90
52203;DHT22;38173;52.850;6.970;2023-04-06T00:27:35;1.30;99.90
52203;DHT22;38173;52.850;6.970;2023-04-06T00:30:01;1.20;99.90
52203;DHT22;38173;52.850;6.970;2023-04-06T00:32:27;1.20;99.90
52203;DHT22;38173;52.850;6.970;2023-04-06T00:34:53;1.20;99.90
52203;DHT22;38173;52.850;6.970;2023-04-06T00:37:18;1.20;99.90
52203;DHT22;38173;52.850;6.970;2023-04-06T00:39:44;1.20;99.90
52203;DHT22;38173;52.850;6.970;2023-04-06T00:42:11;1.10;99.90
52203;DHT22;38173;52.850;6.970;2023-04-06T00:44:42;1.00;99.90
52203;DHT22;38173;52.850;6.970;2023-04-06T00:47:08;1.00;99.90
52203;DHT22;38173;52.850;6.970;2023-04-06T00:49:34;1.00;99.90
52203;DHT22;38173;52.850;6.970;2023-04-06T00:52:00;1.00;99.90
52203;DHT22;38173;52.850;6.970;2023-04-06T00:54:26;1.00;99.90
52203;DHT22;38173;52.850;6.970;2023-04-06T00:56:52;1.00;99.90
52203;DHT22;38173;52.850;6.970;2023-04-06T00:59:18;0.90;99.90
52203;DHT22;38173;52.850;6.970;2023-04-06T01:01:43;0.90;99.90
52203;DHT22;38173;52.850;6.970;2023-04-06T01:04:09;0.90;99.90
52203;DHT22;38173;52.850;6.970;2023-04-06T01:06:35;0.90;99.90
52203;DHT22;38173;52.850;6.970;2023-04-06T01:09:00;0.80;99.90
52203;DHT22;38173;52.850;6.970;2023-04-06T01:11:26;0.80;99.90
52203;DHT22;38173;52.850;6.970;2023-04-06T01:13:52;0.80;99.90
52203;DHT22;38173;52.850;6.970;2023-04-06T01:16:17;0.80;99.90
52203;DHT22;38173;52.850;6.970;2023-04-06T01:18:43;0.70;99.90
52203;DHT22;38173;52.850;6.970;2023-04-06T01:21:09;0.70;99.90
52203;DHT22;38173;52.850;6.970;2023-04-06T01:23:42;0.70;99.90
52203;DHT22;38173;52.850;6.970;2023-04-06T01:26:08;0.70;99.90
52203;DHT22;38173;52.850;6.970;2023-04-06T01:28:33;0.70;99.90
52203;DHT22;38173;52.850;6.970;2023-04-06T01:30:59;0.70;99.90
52203;DHT22;38173;52.850;6.970;2023-04-06T01:33:24;0.70;99.90
52203;DHT22;38173;52.850;6.970;2023-04-06T01:35:50;0.70;99.90
52203;DHT22;38173;52.850;6.970;2023-04-06T01:38:16;0.70;99.90
52203;DHT22;38173;52.850;6.970;2023-04-06T01:40:41;0.70;99.90
52203;DHT22;38173;52.850;6.970;2023-04-06T01:43:07;0.70;99.90
52203;DHT22;38173;52.850;6.970;2023-04-06T01:45:33;0.70;99.90
52203;DHT22;38173;52.850;6.970;2023-04-06T01:47:58;0.70;99.90
52203;DHT22;38173;52.850;6.970;2023-04-06T01:50:24;0.70;99.90
52203;DHT22;38173;52.850;6.970;2023-04-06T01:52:49;0.70;99.90
52203;DHT22;38173;52.850;6.970;2023-04-06T01:55:15;0.70;99.90
52203;DHT22;38173;52.850;6.970;2023-04-06T01:57:41;0.70;99.90
52203;DHT22;38173;52.850;6.970;2023-04-06T02:00:07;0.60;99.90
52203;DHT22;38173;52.850;6.970;2023-04-06T02:02:32;0.60;99.90
52203;DHT22;38173;52.850;6.970;2023-04-06T02:04:58;0.60;99.90
52203;DHT22;38173;52.850;6.970;2023-04-06T02:07:23;0.60;99.90
52203;DHT22;38173;52.850;6.970;2023-04-06T02:09:53;0.60;99.90
52203;DHT22;38173;52.850;6.970;2023-04-06T02:12:19;0.60;99.90
52203;DHT22;38173;52.850;6.970;2023-04-06T02:14:44;0.50;99.90
52203;DHT22;38173;52.850;6.970;2023-04-06T02:17:10;0.60;99.90
52203;DHT22;38173;52.850;6.970;2023-04-06T02:19:36;0.50;99.90
52203;DHT22;38173;52.850;6.970;2023-04-06T02:22:01;0.50;99.90
52203;DHT22;38173;52.850;6.970;2023-04-06T02:24:28;0.50;99.90
52203;DHT22;38173;52.850;6.970;2023-04-06T02:26:54;0.50;99.90
52203;DHT22;38173;52.850;6.970;2023-04-06T02:29:19;0.50;99.90
52203;DHT22;38173;52.850;6.970;2023-04-06T02:31:45;0.40;99.90
52203;DHT22;38173;52.850;6.970;2023-04-06T02:34:11;0.50;99.90
52203;DHT22;38173;52.850;6.970;2023-04-06T02:36:43;0.40;99.90
52203;DHT22;38173;52.850;6.970;2023-04-06T02:39:11;0.40;99.90
52203;DHT22;38173;52.850;6.970;2023-04-06T02:41:37;0.40;99.90
52203;DHT22;38173;52.850;6.970;2023-04-06T02:44:02;0.40;99.90
52203;DHT22;38173;52.850;6.970;2023-04-06T02:46:28;0.40;99.90
52203;DHT22;38173;52.850;6.970;2023-04-06T02:48:54;0.40;99.90
52203;DHT22;38173;52.850;6.970;2023-04-06T02:51:20;0.30;99.90
52203;DHT22;38173;52.850;6.970;2023-04-06T02:53:46;0.40;99.90
52203;DHT22;38173;52.850;6.970;2023-04-06T02:56:11;0.30;99.90
52203;DHT22;38173;52.850;6.970;2023-04-06T02:58:37;0.30;99.90
52203;DHT22;38173;52.850;6.970;2023-04-06T03:01:03;0.30;99.90
52203;DHT22;38173;52.850;6.970;2023-04-06T03:03:28;0.30;99.90
52203;DHT22;38173;52.850;6.970;2023-04-06T03:05:54;0.30;99.90
52203;DHT22;38173;52.850;6.970;2023-04-06T03:08:20;0.30;99.90
52203;DHT22;38173;52.850;6.970;2023-04-06T03:10:45;0.30;99.90
52203;DHT22;38173;52.850;6.970;2023-04-06T03:13:11;0.30;99.90
52203;DHT22;38173;52.850;6.970;2023-04-06T03:15:36;0.30;99.90
52203;DHT22;38173;52.850;6.970;2023-04-06T03:18:02;0.30;99.90
52203;DHT22;38173;52.850;6.970;2023-04-06T03:20:28;0.30;99.90
52203;DHT22;38173;52.850;6.970;2023-04-06T03:22:53;0.30;99.90
52203;DHT22;38173;52.850;6.970;2023-04-06T03:25:19;0.30;99.90
52203;DHT22;38173;52.850;6.970;2023-04-06T03:27:45;0.30;99.90
52203;DHT22;38173;52.850;6.970;2023-04-06T03:30:10;0.20;99.90
52203;DHT22;38173;52.850;6.970;2023-04-06T03:32:36;0.20;99.90
52203;DHT22;38173;52.850;6.970;2023-04-06T03:35:02;0.20;99.90
52203;DHT22;38173;52.850;6.970;2023-04-06T03:37:27;0.20;99.90
52203;DHT22;38173;52.850;6.970;2023-04-06T03:39:56;0.20;99.90
52203;DHT22;38173;52.850;6.970;2023-04-06T03:42:21;0.20;99.90
52203;DHT22;38173;52.850;6.970;2023-04-06T03:44:47;0.10;99.90
52203;DHT22;38173;52.850;6.970;2023-04-06T03:47:12;0.10;99.90
52203;DHT22;38173;52.850;6.970;2023-04-06T03:49:38;0.10;99.90
52203;DHT22;38173;52.850;6.970;2023-04-06T03:52:04;0.10;99.90
52203;DHT22;38173;52.850;6.970;2023-04-06T03:54:29;0.00;99.90
52203;DHT22;38173;52.850;6.970;2023-04-06T03:56:55;0.00;99.90
52203;DHT22;38173;52.850;6.970;2023-04-06T03:59:20;0.00;99.90
52203;DHT22;38173;52.850;6.970;2023-04-06T04:01:46;0.00;99.90
52203;DHT22;38173;52.850;6.970;2023-04-06T04:04:12;0.00;99.90
52203;DHT22;38173;52.850;6.970;2023-04-06T04:06:37;0.00;99.90
52203;DHT22;38173;52.850;6.970;2023-04-06T04:09:03;0.00;99.90
52203;DHT22;38173;52.850;6.970;2023-04-06T04:11:29;0.00;99.90
52203;DHT22;38173;52.850;6.970;2023-04-06T04:13:54;0.00;99.90
52203;DHT22;38173;52.850;6.970;2023-04-06T04:16:20;-0.10;99.90
52203;DHT22;38173;52.850;6.970;2023-04-06T04:18:46;-0.10;99.90
52203;DHT22;38173;52.850;6.970;2023-04-06T04:21:13;-0.10;99.90
52203;DHT22;38173;52.850;6.970;2023-04-06T04:23:39;-0.10;99.90
52203;DHT22;38173;52.850;6.970;2023-04-06T04:26:04;-0.20;99.90
52203;DHT22;38173;52.850;6.970;2023-04-06T04:28:30;-0.20;99.90
52203;DHT22;38173;52.850;6.970;2023-04-06T04:30:55;-0.30;99.90
52203;DHT22;38173;52.850;6.970;2023-04-06T04:33:21;-0.30;99.90
52203;DHT22;38173;52.850;6.970;2023-04-06T04:35:48;-0.40;99.90
52203;DHT22;38173;52.850;6.970;2023-04-06T04:38:13;-0.40;99.90
52203;DHT22;38173;52.850;6.970;2023-04-06T04:40:39;-0.40;99.90
52203;DHT22;38173;52.850;6.970;2023-04-06T04:43:05;-0.40;99.90
52203;DHT22;38173;52.850;6.970;2023-04-06T04:45:30;-0.40;99.90
52203;DHT22;38173;52.850;6.970;2023-04-06T04:47:56;-0.30;99.90
52203;DHT22;38173;52.850;6.970;2023-04-06T04:50:21;-0.30;99.90
52203;DHT22;38173;52.850;6.970;2023-04-06T04:52:47;-0.30;99.90
52203;DHT22;38173;52.850;6.970;2023-04-06T04:55:13;-0.30;99.90
52203;DHT22;38173;52.850;6.970;2023-04-06T04:57:38;-0.30;99.90
52203;DHT22;38173;52.850;6.970;2023-04-06T05:00:05;-0.30;99.90
52203;DHT22;38173;52.850;6.970;2023-04-06T05:02:31;-0.30;99.90
52203;DHT22;38173;52.850;6.970;2023-04-06T05:04:56;-0.30;99.90
52203;DHT22;38173;52.850;6.970;2023-04-06T05:07:22;-0.40;99.90
52203;DHT22;38173;52.850;6.970;2023-04-06T05:09:48;-0.40;99.90
52203;DHT22;38173;52.850;6.970;2023-04-06T05:12:13;-0.40;99.90
52203;DHT22;38173;52.850;6.970;2023-04-06T05:14:39;-0.40;99.90
52203;DHT22;38173;52.850;6.970;2023-04-06T05:17:05;-0.30;99.90
52203;DHT22;38173;52.850;6.970;2023-04-06T05:19:30;-0.30;99.90
52203;DHT22;38173;52.850;6.970;2023-04-06T05:21:56;-0.30;99.90
52203;DHT22;38173;52.850;6.970;2023-04-06T05:24:22;-0.30;99.90
52203;DHT22;38173;52.850;6.970;2023-04-06T05:26:48;-0.20;99.90
52203;DHT22;38173;52.850;6.970;2023-04-06T05:29:13;-0.20;99.90
52203;DHT22;38173;52.850;6.970;2023-04-06T05:31:39;-0.20;99.90
52203;DHT22;38173;52.850;6.970;2023-04-06T05:34:05;-0.10;99.90
52203;DHT22;38173;52.850;6.970;2023-04-06T05:36:30;-0.10;99.90
52203;DHT22;38173;52.850;6.970;2023-04-06T05:38:57;-0.10;99.90
52203;DHT22;38173;52.850;6.970;2023-04-06T05:41:23;0.00;99.90
52203;DHT22;38173;52.850;6.970;2023-04-06T05:43:49;0.00;99.90
52203;DHT22;38173;52.850;6.970;2023-04-06T05:46:14;0.00;99.90
52203;DHT22;38173;52.850;6.970;2023-04-06T05:48:40;0.10;99.90
52203;DHT22;38173;52.850;6.970;2023-04-06T05:51:06;0.10;99.90
52203;DHT22;38173;52.850;6.970;2023-04-06T05:53:32;0.20;99.90
52203;DHT22;38173;52.850;6.970;2023-04-06T05:56:01;0.30;99.90
52203;DHT22;38173;52.850;6.970;2023-04-06T05:58:27;0.30;99.90
52203;DHT22;38173;52.850;6.970;2023-04-06T06:00:59;0.30;99.90
52203;DHT22;38173;52.850;6.970;2023-04-06T06:03:25;0.40;99.90
52203;DHT22;38173;52.850;6.970;2023-04-06T06:05:50;0.40;99.90
52203;DHT22;38173;52.850;6.970;2023-04-06T06:08:16;0.50;99.90
52203;DHT22;38173;52.850;6.970;2023-04-06T06:10:42;0.60;99.90
52203;DHT22;38173;52.850;6.970;2023-04-06T06:13:08;0.70;99.90
52203;DHT22;38173;52.850;6.970;2023-04-06T06:15:34;0.70;99.90
52203;DHT22;38173;52.850;6.970;2023-04-06T06:18:00;0.80;99.90
52203;DHT22;38173;52.850;6.970;2023-04-06T06:20:26;0.90;99.90
52203;DHT22;38173;52.850;6.970;2023-04-06T06:22:52;1.00;99.90
52203;DHT22;38173;52.850;6.970;2023-04-06T06:25:17;1.10;99.90
52203;DHT22;38173;52.850;6.970;2023-04-06T06:27:43;1.20;99.90
52203;DHT22;38173;52.850;6.970;2023-04-06T06:30:09;1.30;99.90
52203;DHT22;38173;52.850;6.970;2023-04-06T06:32:35;1.50;99.90
52203;DHT22;38173;52.850;6.970;2023-04-06T06:35:00;1.60;99.90
52203;DHT22;38173;52.850;6.970;2023-04-06T06:37:26;1.60;99.90
52203;DHT22;38173;52.850;6.970;2023-04-06T06:39:52;1.70;99.90
52203;DHT22;38173;52.850;6.970;2023-04-06T06:42:17;1.90;99.90
52203;DHT22;38173;52.850;6.970;2023-04-06T06:44:43;1.90;99.90
52203;DHT22;38173;52.850;6.970;2023-04-06T06:47:09;2.00;99.90
52203;DHT22;38173;52.850;6.970;2023-04-06T06:49:34;2.20;99.90
52203;DHT22;38173;52.850;6.970;2023-04-06T06:52:01;2.30;99.90
52203;DHT22;38173;52.850;6.970;2023-04-06T06:54:27;2.40;99.90
52203;DHT22;38173;52.850;6.970;2023-04-06T06:56:52;2.50;99.90
52203;DHT22;38173;52.850;6.970;2023-04-06T06:59:19;2.60;99.90
52203;DHT22;38173;52.850;6.970;2023-04-06T07:01:45;2.70;99.90
52203;DHT22;38173;52.850;6.970;2023-04-06T07:04:11;2.80;99.90
52203;DHT22;38173;52.850;6.970;2023-04-06T07:06:39;2.90;99.90
52203;DHT22;38173;52.850;6.970;2023-04-06T07:09:05;3.10;99.90
52203;DHT22;38173;52.850;6.970;2023-04-06T07:11:31;3.10;99.90
52203;DHT22;38173;52.850;6.970;2023-04-06T07:13:56;3.30;99.90
52203;DHT22;38173;52.850;6.970;2023-04-06T07:16:22;3.40;99.90
52203;DHT22;38173;52.850;6.970;2023-04-06T07:18:47;3.50;99.90
52203;DHT22;38173;52.850;6.970;2023-04-06T07:21:13;3.60;99.90
52203;DHT22;38173;52.850;6.970;2023-04-06T07:23:41;3.70;99.90
52203;DHT22;38173;52.850;6.970;2023-04-06T07:26:07;3.80;99.90
52203;DHT22;38173;52.850;6.970;2023-04-06T07:28:32;3.90;99.90
52203;DHT22;38173;52.850;6.970;2023-04-06T07:30:58;4.00;99.90
52203;DHT22;38173;52.850;6.970;2023-04-06T07:33:24;4.20;99.90
52203;DHT22;38173;52.850;6.970;2023-04-06T07:35:50;4.30;99.90
52203;DHT22;38173;52.850;6.970;2023-04-06T07:38:16;4.40;99.90
52203;DHT22;38173;52.850;6.970;2023-04-06T07:40:42;4.50;99.90
52203;DHT22;38173;52.850;6.970;2023-04-06T07:43:08;4.70;99.90
52203;DHT22;38173;52.850;6.970;2023-04-06T07:45:33;4.70;99.90
52203;DHT22;38173;52.850;6.970;2023-04-06T07:47:59;4.90;99.90
52203;DHT22;38173;52.850;6.970;2023-04-06T07:50:25;5.00;99.90
52203;DHT22;38173;52.850;6.970;2023-04-06T07:52:50;5.10;99.90
52203;DHT22;38173;52.850;6.970;2023-04-06T07:55:16;5.20;99.90
52203;DHT22;38173;52.850;6.970;2023-04-06T07:57:42;5.30;99.90
52203;DHT22;38173;52.850;6.970;2023-04-06T08:00:07;5.50;99.90
52203;DHT22;38173;52.850;6.970;2023-04-06T08:02:35;5.60;99.90
52203;DHT22;38173;52.850;6.970;2023-04-06T08:05:00;5.70;99.90
52203;DHT22;38173;52.850;6.970;2023-04-06T08:07:26;5.90;99.90
52203;DHT22;38173;52.850;6.970;2023-04-06T08:09:51;6.00;99.90
52203;DHT22;38173;52.850;6.970;2023-04-06T08:12:20;6.10;99.90
52203;DHT22;38173;52.850;6.970;2023-04-06T08:14:45;6.20;99.90
52203;DHT22;38173;52.850;6.970;2023-04-06T08:17:11;6.40;99.90
52203;DHT22;38173;52.850;6.970;2023-04-06T08:19:36;6.50;99.90
52203;DHT22;38173;52.850;6.970;2023-04-06T08:22:02;6.60;99.90
52203;DHT22;38173;52.850;6.970;2023-04-06T08:24:28;6.70;99.90
52203;DHT22;38173;52.850;6.970;2023-04-06T08:26:54;6.80;99.90
52203;DHT22;38173;52.850;6.970;2023-04-06T08:29:19;7.00;99.90
52203;DHT22;38173;52.850;6.970;2023-04-06T08:31:45;7.20;99.90
52203;DHT22;38173;52.850;6.970;2023-04-06T08:34:11;7.30;99.90
52203;DHT22;38173;52.850;6.970;2023-04-06T08:36:37;7.40;99.90
52203;DHT22;38173;52.850;6.970;2023-04-06T08:39:02;7.60;99.90
52203;DHT22;38173;52.850;6.970;2023-04-06T08:41:28;7.90;99.90
52203;DHT22;38173;52.850;6.970;2023-04-06T08:44:00;8.00;99.90
52203;DHT22;38173;52.850;6.970;2023-04-06T08:46:27;8.10;99.90
52203;DHT22;38173;52.850;6.970;2023-04-06T08:48:56;8.20;99.90
52203;DHT22;38173;52.850;6.970;2023-04-06T08:51:26;8.30;99.90
52203;DHT22;38173;52.850;6.970;2023-04-06T08:53:55;8.30;99.90
52203;DHT22;38173;52.850;6.970;2023-04-06T08:56:25;8.40;99.90
52203;DHT22;38173;52.850;6.970;2023-04-06T08:58:51;8.50;99.90
52203;DHT22;38173;52.850;6.970;2023-04-06T09:01:17;8.60;99.90
52203;DHT22;38173;52.850;6.970;2023-04-06T09:03:45;8.70;99.60
52203;DHT22;38173;52.850;6.970;2023-04-06T09:06:11;8.90;99.40
52203;DHT22;38173;52.850;6.970;2023-04-06T09:08:38;9.10;99.10
52203;DHT22;38173;52.850;6.970;2023-04-06T09:11:04;9.20;98.80
52203;DHT22;38173;52.850;6.970;2023-04-06T09:13:30;9.40;98.70
52203;DHT22;38173;52.850;6.970;2023-04-06T09:16:02;9.60;98.00
52203;DHT22;38173;52.850;6.970;2023-04-06T09:18:29;9.70;97.00
52203;DHT22;38173;52.850;6.970;2023-04-06T09:20:59;9.80;97.10
52203;DHT22;38173;52.850;6.970;2023-04-06T09:23:24;9.90;96.40
52203;DHT22;38173;52.850;6.970;2023-04-06T09:25:50;10.00;96.00
52203;DHT22;38173;52.850;6.970;2023-04-06T09:28:16;10.20;96.10
52203;DHT22;38173;52.850;6.970;2023-04-06T09:30:48;10.30;96.10
52203;DHT22;38173;52.850;6.970;2023-04-06T09:33:21;10.50;96.20
52203;DHT22;38173;52.850;6.970;2023-04-06T09:35:49;10.60;95.50
52203;DHT22;38173;52.850;6.970;2023-04-06T09:38:15;10.80;94.70
52203;DHT22;38173;52.850;6.970;2023-04-06T09:40:48;10.90;93.30
52203;DHT22;38173;52.850;6.970;2023-04-06T09:43:22;11.00;94.30
52203;DHT22;38173;52.850;6.970;2023-04-06T09:45:57;11.10;92.60
52203;DHT22;38173;52.850;6.970;2023-04-06T09:48:24;11.20;92.50
52203;DHT22;38173;52.850;6.970;2023-04-06T09:50:51;11.40;92.20
52203;DHT22;38173;52.850;6.970;2023-04-06T09:53:19;11.60;91.80
52203;DHT22;38173;52.850;6.970;2023-04-06T09:55:45;11.90;91.50
52203;DHT22;38173;52.850;6.970;2023-04-06T09:58:15;12.10;90.90
52203;DHT22;38173;52.850;6.970;2023-04-06T10:00:48;12.20;90.90
52203;DHT22;38173;52.850;6.970;2023-04-06T10:03:21;12.20;89.40
52203;DHT22;38173;52.850;6.970;2023-04-06T10:05:55;12.10;88.30
52203;DHT22;38173;52.850;6.970;2023-04-06T10:08:24;12.00;88.20
52203;DHT22;38173;52.850;6.970;2023-04-06T10:10:50;11.90;87.30
52203;DHT22;38173;52.850;6.970;2023-04-06T10:13:19;11.80;86.50
52203;DHT22;38173;52.850;6.970;2023-04-06T10:15:45;11.90;88.30
52203;DHT22;38173;52.850;6.970;2023-04-06T10:18:10;11.90;88.40
52203;DHT22;38173;52.850;6.970;2023-04-06T10:20:39;11.90;87.10
52203;DHT22;38173;52.850;6.970;2023-04-06T10:23:09;11.80;85.50
52203;DHT22;38173;52.850;6.970;2023-04-06T10:25:39;11.80;85.10
52203;DHT22;38173;52.850;6.970;2023-04-06T10:28:06;11.80;85.20
52203;DHT22;38173;52.850;6.970;2023-04-06T10:30:32;11.80;86.60
52203;DHT22;38173;52.850;6.970;2023-04-06T10:32:58;11.90;85.20
52203;DHT22;38173;52.850;6.970;2023-04-06T10:35:23;11.90;84.60
52203;DHT22;38173;52.850;6.970;2023-04-06T10:37:50;12.00;83.60
52203;DHT22;38173;52.850;6.970;2023-04-06T10:42:45;12.10;84.00
52203;DHT22;38173;52.850;6.970;2023-04-06T10:47:47;12.60;84.10
52203;DHT22;38173;52.850;6.970;2023-04-06T10:50:16;13.00;83.70
52203;DHT22;38173;52.850;6.970;2023-04-06T10:52:45;13.10;82.30
52203;DHT22;38173;52.850;6.970;2023-04-06T10:55:14;13.10;81.10
52203;DHT22;38173;52.850;6.970;2023-04-06T10:57:40;13.00;79.60
52203;DHT22;38173;52.850;6.970;2023-04-06T11:00:06;13.10;78.80
52203;DHT22;38173;52.850;6.970;2023-04-06T11:02:32;13.10;79.60
52203;DHT22;38173;52.850;6.970;2023-04-06T11:04:58;13.20;78.50
52203;DHT22;38173;52.850;6.970;2023-04-06T11:07:24;13.20;77.70
52203;DHT22;38173;52.850;6.970;2023-04-06T11:09:50;13.00;75.30
52203;DHT22;38173;52.850;6.970;2023-04-06T11:12:23;13.00;77.60
52203;DHT22;38173;52.850;6.970;2023-04-06T11:14:57;12.90;76.80
52203;DHT22;38173;52.850;6.970;2023-04-06T11:17:28;12.80;76.50
52203;DHT22;38173;52.850;6.970;2023-04-06T11:19:54;12.90;77.30
52203;DHT22;38173;52.850;6.970;2023-04-06T11:22:20;12.90;77.40
52203;DHT22;38173;52.850;6.970;2023-04-06T11:24:51;13.00;77.00
52203;DHT22;38173;52.850;6.970;2023-04-06T11:27:17;13.10;75.10
52203;DHT22;38173;52.850;6.970;2023-04-06T11:29:43;13.20;75.90
52203;DHT22;38173;52.850;6.970;2023-04-06T11:32:11;13.40;76.70
52203;DHT22;38173;52.850;6.970;2023-04-06T11:34:44;13.60;77.00
52203;DHT22;38173;52.850;6.970;2023-04-06T11:37:13;13.80;76.30
52203;DHT22;38173;52.850;6.970;2023-04-06T11:42:04;13.60;75.00
52203;DHT22;38173;52.850;6.970;2023-04-06T11:44:34;13.40;75.40
52203;DHT22;38173;52.850;6.970;2023-04-06T11:47:03;13.30;75.40
52203;DHT22;38173;52.850;6.970;2023-04-06T11:49:39;13.40;76.50
52203;DHT22;38173;52.850;6.970;2023-04-06T11:52:15;13.50;75.60
52203;DHT22;38173;52.850;6.970;2023-04-06T11:54:41;13.60;76.50
52203;DHT22;38173;52.850;6.970;2023-04-06T11:57:07;13.60;75.70
52203;DHT22;38173;52.850;6.970;2023-04-06T11:59:33;13.60;75.40
52203;DHT22;38173;52.850;6.970;2023-04-06T12:02:00;13.60;75.30
52203;DHT22;38173;52.850;6.970;2023-04-06T12:04:26;13.50;76.00
52203;DHT22;38173;52.850;6.970;2023-04-06T12:06:52;13.40;75.70
52203;DHT22;38173;52.850;6.970;2023-04-06T12:09:17;13.40;74.20
52203;DHT22;38173;52.850;6.970;2023-04-06T12:11:43;13.40;73.80
52203;DHT22;38173;52.850;6.970;2023-04-06T12:14:12;13.40;74.60
52203;DHT22;38173;52.850;6.970;2023-04-06T12:16:37;13.40;74.40
52203;DHT22;38173;52.850;6.970;2023-04-06T12:19:03;13.50;76.00
52203;DHT22;38173;52.850;6.970;2023-04-06T12:21:30;13.60;75.20
52203;DHT22;38173;52.850;6.970;2023-04-06T12:23:56;13.60;74.30
52203;DHT22;38173;52.850;6.970;2023-04-06T12:26:23;13.60;73.30
52203;DHT22;38173;52.850;6.970;2023-04-06T12:28:49;13.50;74.90
52203;DHT22;38173;52.850;6.970;2023-04-06T12:31:15;13.40;74.10
52203;DHT22;38173;52.850;6.970;2023-04-06T12:33:42;13.40;75.50
52203;DHT22;38173;52.850;6.970;2023-04-06T12:36:14;13.40;73.60
52203;DHT22;38173;52.850;6.970;2023-04-06T12:38:41;13.30;73.00
52203;DHT22;38173;52.850;6.970;2023-04-06T12:41:07;13.30;73.00
52203;DHT22;38173;52.850;6.970;2023-04-06T12:43:32;13.30;74.80
52203;DHT22;38173;52.850;6.970;2023-04-06T12:45:58;13.30;74.00
52203;DHT22;38173;52.850;6.970;2023-04-06T12:48:25;13.40;74.40
52203;DHT22;38173;52.850;6.970;2023-04-06T12:50:57;13.40;73.10
52203;DHT22;38173;52.850;6.970;2023-04-06T12:53:23;13.50;74.40
52203;DHT22;38173;52.850;6.970;2023-04-06T12:55:50;13.50;73.10
52203;DHT22;38173;52.850;6.970;2023-04-06T12:58:18;13.50;72.60
52203;DHT22;38173;52.850;6.970;2023-04-06T13:00:44;13.50;72.20
52203;DHT22;38173;52.850;6.970;2023-04-06T13:03:09;13.50;72.90
52203;DHT22;38173;52.850;6.970;2023-04-06T13:05:35;13.50;73.10
52203;DHT22;38173;52.850;6.970;2023-04-06T13:08:01;13.50;72.50
52203;DHT22;38173;52.850;6.970;2023-04-06T13:10:26;13.50;72.40
52203;DHT22;38173;52.850;6.970;2023-04-06T13:12:52;13.60;72.60
52203;DHT22;38173;52.850;6.970;2023-04-06T13:15:18;13.50;72.90
52203;DHT22;38173;52.850;6.970;2023-04-06T13:17:44;13.50;71.50
52203;DHT22;38173;52.850;6.970;2023-04-06T13:20:10;13.40;71.20
52203;DHT22;38173;52.850;6.970;2023-04-06T13:22:36;13.40;71.70
52203;DHT22;38173;52.850;6.970;2023-04-06T13:25:01;13.40;72.00
52203;DHT22;38173;52.850;6.970;2023-04-06T13:27:27;13.40;71.80
52203;DHT22;38173;52.850;6.970;2023-04-06T13:29:53;13.40;71.70
52203;DHT22;38173;52.850;6.970;2023-04-06T13:32:19;13.50;72.50
52203;DHT22;38173;52.850;6.970;2023-04-06T13:34:44;13.40;70.30
52203;DHT22;38173;52.850;6.970;2023-04-06T13:37:11;13.50;71.60
52203;DHT22;38173;52.850;6.970;2023-04-06T13:39:37;13.40;71.40
52203;DHT22;38173;52.850;6.970;2023-04-06T13:42:03;13.40;71.60
52203;DHT22;38173;52.850;6.970;2023-04-06T13:44:29;13.40;71.20
52203;DHT22;38173;52.850;6.970;2023-04-06T13:46:55;13.40;71.50
52203;DHT22;38173;52.850;6.970;2023-04-06T13:49:22;13.50;71.70
52203;DHT22;38173;52.850;6.970;2023-04-06T13:51:47;13.50;70.50
52203;DHT22;38173;52.850;6.970;2023-04-06T13:54:13;13.50;71.30
52203;DHT22;38173;52.850;6.970;2023-04-06T13:56:38;13.40;70.90
52203;DHT22;38173;52.850;6.970;2023-04-06T13:59:04;13.30;70.50
52203;DHT22;38173;52.850;6.970;2023-04-06T14:01:30;13.20;71.40
52203;DHT22;38173;52.850;6.970;2023-04-06T14:03:55;13.10;70.90
52203;DHT22;38173;52.850;6.970;2023-04-06T14:06:21;13.10;70.80
52203;DHT22;38173;52.850;6.970;2023-04-06T14:08:46;13.10;71.00
52203;DHT22;38173;52.850;6.970;2023-04-06T14:11:12;13.10;70.90
52203;DHT22;38173;52.850;6.970;2023-04-06T14:13:38;13.10;71.20
52203;DHT22;38173;52.850;6.970;2023-04-06T14:16:04;13.10;71.70
52203;DHT22;38173;52.850;6.970;2023-04-06T14:18:30;13.10;71.90
52203;DHT22;38173;52.850;6.970;2023-04-06T14:20:56;13.10;72.00
52203;DHT22;38173;52.850;6.970;2023-04-06T14:23:25;13.00;71.60
52203;DHT22;38173;52.850;6.970;2023-04-06T14:26:09;12.90;71.60
52203;DHT22;38173;52.850;6.970;2023-04-06T14:28:34;12.90;71.40
52203;DHT22;38173;52.850;6.970;2023-04-06T14:31:01;12.80;71.80
52203;DHT22;38173;52.850;6.970;2023-04-06T14:33:29;12.80;71.60
52203;DHT22;38173;52.850;6.970;2023-04-06T14:35:55;12.80;71.90
52203;DHT22;38173;52.850;6.970;2023-04-06T14:38:21;12.90;71.60
52203;DHT22;38173;52.850;6.970;2023-04-06T14:40:47;13.00;72.00
52203;DHT22;38173;52.850;6.970;2023-04-06T14:43:12;13.00;71.20
52203;DHT22;38173;52.850;6.970;2023-04-06T14:45:38;13.00;71.50
52203;DHT22;38173;52.850;6.970;2023-04-06T14:48:04;12.90;70.90
52203;DHT22;38173;52.850;6.970;2023-04-06T14:50:34;13.00;71.90
52203;DHT22;38173;52.850;6.970;2023-04-06T14:53:00;13.00;71.50
52203;DHT22;38173;52.850;6.970;2023-04-06T14:55:26;12.90;71.80
52203;DHT22;38173;52.850;6.970;2023-04-06T14:57:52;12.90;71.50
52203;DHT22;38173;52.850;6.970;2023-04-06T15:00:18;12.80;71.60
52203;DHT22;38173;52.850;6.970;2023-04-06T15:02:44;12.80;72.20
52203;DHT22;38173;52.850;6.970;2023-04-06T15:05:09;12.80;72.50
52203;DHT22;38173;52.850;6.970;2023-04-06T15:07:36;12.60;72.90
52203;DHT22;38173;52.850;6.970;2023-04-06T15:10:01;12.50;73.00
52203;DHT22;38173;52.850;6.970;2023-04-06T15:12:27;12.40;73.70
52203;DHT22;38173;52.850;6.970;2023-04-06T15:14:54;12.30;73.80
52203;DHT22;38173;52.850;6.970;2023-04-06T15:17:20;12.20;74.00
52203;DHT22;38173;52.850;6.970;2023-04-06T15:19:46;12.10;74.70
52203;DHT22;38173;52.850;6.970;2023-04-06T15:22:12;12.00;75.00
52203;DHT22;38173;52.850;6.970;2023-04-06T15:24:38;11.90;74.90
52203;DHT22;38173;52.850;6.970;2023-04-06T15:27:03;11.80;75.20
52203;DHT22;38173;52.850;6.970;2023-04-06T15:29:30;11.70;75.10
52203;DHT22;38173;52.850;6.970;2023-04-06T15:31:55;11.60;75.40
52203;DHT22;38173;52.850;6.970;2023-04-06T15:34:21;11.50;75.50
52203;DHT22;38173;52.850;6.970;2023-04-06T15:36:47;11.40;76.10
52203;DHT22;38173;52.850;6.970;2023-04-06T15:39:13;11.40;76.10